Terminal Aerodrome Forecast
Issued by NWS Spokane, WA

Home | Current Version | Previous Version | Text Only | Print | Product List | Glossary On
Versions: 1 2 3 4 5 6 7 8 9 10 11 12 13 14 15 16 17 18 19 20 21 22
000
FTUS46 KOTX 171415 AAA
TAFGEG
TAF AMD
KGEG 171415Z 1714/1812 05004KT 1/4SM FG VV001
     FM171600 10005KT 3SM BR OVC007
      TEMPO 1716/1717 1SM BR OVC003
     FM171700 10007KT 6SM BR SCT007 BKN030 OVC050
     FM172100 09007KT P6SM SCT030 BKN050 OVC100
     FM180500 11010KT 6SM -SHRA BR FEW015 OVC050=

USA.gov is the U.S. government's official web portal to all federal, state and local government web resources and services.